Time;durP1;ratioP1;P1;durP2;ratioP2;P2;SDS_P1;SDS_P2;PMS_P1;PMS_P2;Temp;Humidity;BMP_temperature;BMP_pressure;BME280_temperature;BME280_humidity;BME280_pressure;Samples;Min_cycle;Max_cycle;Signal;HPM_P1;HPM_P2
2024/04/12 00:01:02;;;;;;;36.88;19.08;;;13.00;99.90;;;;;;5452080;26;20027;-79
2024/04/12 00:03:31;;;;;;;39.80;19.30;;;13.00;99.90;;;;;;5452418;26;20031;-79
2024/04/12 00:06:06;;;;;;;35.58;19.08;;;13.00;99.90;;;;;;5423688;26;20028;-79
2024/04/12 00:08:34;;;;;;;33.50;16.58;;;13.00;99.90;;;;;;5416175;26;20469;-81
2024/04/12 00:11:02;;;;;;;36.20;18.00;;;13.00;99.90;;;;;;5452546;26;20026;-79
2024/04/12 00:13:32;;;;;;;31.23;17.05;;;13.00;99.90;;;;;;5452301;26;20027;-79
2024/04/12 00:15:59;;;;;;;35.75;17.35;;;12.90;99.90;;;;;;5452474;26;20022;-79
2024/04/12 00:18:28;;;;;;;36.65;17.98;;;13.00;99.90;;;;;;5452276;26;20019;-80
2024/04/12 00:20:58;;;;;;;35.83;17.58;;;13.00;99.90;;;;;;5417950;26;20023;-80
2024/04/12 00:23:28;;;;;;;34.20;15.88;;;13.00;99.90;;;;;;5447014;26;20035;-79
2024/04/12 00:25:55;;;;;;;33.15;17.08;;;12.90;99.90;;;;;;5452600;26;20031;-79
2024/04/12 00:28:22;;;;;;;35.25;17.52;;;12.90;99.90;;;;;;5452338;26;20030;-79
2024/04/12 00:30:49;;;;;;;31.27;15.70;;;12.90;99.90;;;;;;5451945;26;20026;-79
2024/04/12 00:33:19;;;;;;;30.15;14.82;;;12.90;99.90;;;;;;5446912;26;20034;-79
2024/04/12 00:35:54;;;;;;;30.25;15.98;;;13.00;99.90;;;;;;5452063;26;20378;-79
2024/04/12 00:38:23;;;;;;;31.02;15.48;;;12.90;99.90;;;;;;5452188;26;20026;-79
2024/04/12 00:40:52;;;;;;;30.30;14.93;;;12.90;99.90;;;;;;5452176;26;20034;-79
2024/04/12 00:43:20;;;;;;;29.90;15.18;;;12.90;99.90;;;;;;5451988;26;20094;-79
2024/04/12 00:45:49;;;;;;;30.10;14.15;;;12.90;99.90;;;;;;5451956;26;20714;-79
2024/04/12 00:48:16;;;;;;;33.17;15.45;;;12.90;99.90;;;;;;5448291;26;20042;-79
2024/04/12 00:50:44;;;;;;;30.70;15.10;;;13.00;99.90;;;;;;5451717;26;20027;-80
2024/04/12 00:53:13;;;;;;;30.48;15.63;;;12.90;99.90;;;;;;5449617;26;21177;-79
2024/04/12 00:55:40;;;;;;;33.85;14.85;;;12.90;99.90;;;;;;5451863;26;20026;-79
2024/04/12 00:58:11;;;;;;;32.25;16.15;;;12.90;99.90;;;;;;5449621;26;20031;-79
2024/04/12 01:00:46;;;;;;;34.72;15.98;;;12.90;99.90;;;;;;5446977;26;20027;-79
2024/04/12 01:03:15;;;;;;;33.95;15.55;;;12.90;99.90;;;;;;5421862;26;20035;-80
2024/04/12 01:05:41;;;;;;;32.05;16.40;;;12.90;99.90;;;;;;5414242;26;20880;-81
2024/04/12 01:08:10;;;;;;;30.70;15.52;;;12.90;99.90;;;;;;5415300;26;20481;-80
2024/04/12 01:10:37;;;;;;;27.25;13.50;;;13.00;99.90;;;;;;5416013;26;20031;-80
2024/04/12 01:13:04;;;;;;;37.83;17.83;;;12.90;99.90;;;;;;5416156;26;20036;-80
2024/04/12 01:15:36;;;;;;;32.92;16.20;;;12.90;99.90;;;;;;5443015;26;20413;-80
2024/04/12 01:18:04;;;;;;;32.85;15.40;;;12.90;99.90;;;;;;5423367;26;20036;-80
2024/04/12 01:20:39;;;;;;;38.47;18.17;;;12.90;99.90;;;;;;5415462;26;20027;-80
2024/04/12 01:23:06;;;;;;;35.72;16.60;;;12.90;99.90;;;;;;5448924;26;20844;-80
2024/04/12 01:25:33;;;;;;;32.80;16.70;;;12.90;99.90;;;;;;5451321;26;20038;-80
2024/04/12 01:28:03;;;;;;;39.05;18.60;;;12.90;99.90;;;;;;5451608;26;20039;-80
2024/04/12 01:30:30;;;;;;;36.28;18.70;;;12.90;99.90;;;;;;5420437;26;20023;-80
2024/04/12 01:32:57;;;;;;;41.95;19.48;;;12.90;99.90;;;;;;5432588;26;20026;-80
2024/04/12 01:35:24;;;;;;;39.00;19.45;;;13.10;99.90;;;;;;5438140;26;20032;-79
2024/04/12 01:37:51;;;;;;;38.25;18.70;;;12.90;99.90;;;;;;5444094;26;20047;-80
2024/04/12 01:40:22;;;;;;;41.45;20.27;;;13.20;99.90;;;;;;5450938;26;20026;-81
2024/04/12 01:42:49;;;;;;;47.28;20.63;;;12.90;99.90;;;;;;5450127;26;20477;-80
2024/04/12 01:45:16;;;;;;;38.63;19.65;;;13.00;99.90;;;;;;5451208;26;20030;-80
2024/04/12 01:47:45;;;;;;;44.58;19.95;;;13.00;99.90;;;;;;5437413;26;20036;-80
2024/04/12 01:50:12;;;;;;;41.47;19.90;;;13.00;99.90;;;;;;5414593;26;20034;-80
2024/04/12 01:52:57;;;;;;;46.15;20.25;;;13.00;99.90;;;;;;5414847;26;20028;-79
2024/04/12 01:55:24;;;;;;;41.97;20.10;;;13.00;99.90;;;;;;5416495;26;20030;-80
2024/04/12 01:57:53;;;;;;;36.65;19.60;;;13.00;99.90;;;;;;5414388;26;20033;-80
2024/04/12 02:00:23;;;;;;;39.97;18.90;;;13.00;99.90;;;;;;5384067;26;20031;-80
2024/04/12 02:02:54;;;;;;;42.58;18.92;;;13.00;99.90;;;;;;5445243;26;20027;-81
2024/04/12 02:05:34;;;;;;;45.53;21.92;;;13.00;99.90;;;;;;5450889;26;20030;-80
2024/04/12 02:08:19;;;;;;;47.05;22.00;;;13.00;99.90;;;;;;5450722;26;20477;-81
2024/04/12 02:10:53;;;;;;;40.78;19.45;;;13.00;99.90;;;;;;5421879;26;20039;-80
2024/04/12 02:13:20;;;;;;;45.85;21.42;;;13.00;99.90;;;;;;5416471;26;20023;-80
2024/04/12 02:15:48;;;;;;;49.47;21.85;;;13.00;99.90;;;;;;5418173;26;20027;-80
2024/04/12 02:18:19;;;;;;;39.28;20.58;;;13.00;99.90;;;;;;5417674;26;20023;-80
2024/04/12 02:20:51;;;;;;;42.60;21.33;;;13.00;99.90;;;;;;5417973;26;20420;-81
2024/04/12 02:23:23;;;;;;;40.22;18.75;;;13.00;99.90;;;;;;5417414;26;20024;-81
2024/04/12 02:25:50;;;;;;;41.42;20.02;;;13.00;99.90;;;;;;5417694;26;20032;-81
2024/04/12 02:28:17;;;;;;;38.75;20.75;;;13.00;99.90;;;;;;5430456;26;20404;-80
2024/04/12 02:30:55;;;;;;;40.05;20.08;;;13.00;99.90;;;;;;5454870;26;20035;-80
2024/04/12 02:33:30;;;;;;;37.25;19.15;;;13.00;99.90;;;;;;5454421;26;20042;-80
2024/04/12 02:36:11;;;;;;;40.72;20.45;;;13.00;99.90;;;;;;5453687;26;20022;-80
2024/04/12 02:38:39;;;;;;;37.55;19.00;;;13.00;99.90;;;;;;5453734;26;20027;-81
2024/04/12 02:41:06;;;;;;;34.17;18.02;;;13.20;99.90;;;;;;5453970;26;20397;-80
2024/04/12 02:43:35;;;;;;;37.42;20.13;;;13.00;99.90;;;;;;5423380;26;20481;-81
2024/04/12 02:46:02;;;;;;;45.30;22.02;;;13.10;99.90;;;;;;5386658;26;20035;-80
2024/04/12 02:48:29;;;;;;;34.95;19.40;;;13.00;99.90;;;;;;5416999;26;20023;-80
2024/04/12 02:51:03;;;;;;;39.63;21.42;;;13.10;99.90;;;;;;5417718;26;20027;-81
2024/04/12 02:53:30;;;;;;;38.33;19.38;;;13.00;99.90;;;;;;5445897;26;20036;-80
2024/04/12 02:56:08;;;;;;;39.00;19.40;;;13.00;99.90;;;;;;5439037;26;20031;-80
2024/04/12 02:58:44;;;;;;;44.80;21.20;;;13.00;99.90;;;;;;5417909;26;20023;-81
2024/04/12 03:01:16;;;;;;;38.92;21.25;;;13.00;99.90;;;;;;5444152;26;20044;-80
2024/04/12 03:03:45;;;;;;;37.00;19.75;;;13.00;99.90;;;;;;5420808;26;20036;-80
2024/04/12 03:06:17;;;;;;;39.25;19.83;;;13.00;99.90;;;;;;5417205;26;20027;-80
2024/04/12 03:08:47;;;;;;;42.03;21.48;;;13.00;99.90;;;;;;5441600;26;20035;-80
2024/04/12 03:11:33;;;;;;;35.45;19.38;;;13.10;99.90;;;;;;5453539;26;20035;-80
2024/04/12 03:14:08;;;;;;;40.38;19.75;;;13.10;99.90;;;;;;5424323;26;20040;-80
2024/04/12 03:16:37;;;;;;;39.40;20.83;;;13.10;99.90;;;;;;5416988;26;20035;-80
2024/04/12 03:19:08;;;;;;;31.20;18.38;;;13.00;99.90;;;;;;5417061;26;20028;-80
2024/04/12 03:21:35;;;;;;;41.30;21.25;;;13.10;99.90;;;;;;5416545;26;20046;-82
2024/04/12 03:24:04;;;;;;;38.33;20.25;;;13.00;99.90;;;;;;5441007;26;20048;-80
2024/04/12 03:26:31;;;;;;;40.97;21.58;;;13.10;99.90;;;;;;5417183;26;20035;-81
2024/04/12 03:29:03;;;;;;;38.90;21.13;;;13.10;99.90;;;;;;5449886;26;20171;-81
2024/04/12 03:31:33;;;;;;;38.60;20.33;;;13.10;99.90;;;;;;5421372;26;20027;-81
2024/04/12 03:34:00;;;;;;;34.72;19.55;;;13.10;99.90;;;;;;5426697;26;20036;-80
2024/04/12 03:41:56;;;;;;;32.40;19.27;;;13.10;99.90;;;;;;5417119;26;20028;-80
2024/04/12 03:44:30;;;;;;;32.40;17.95;;;13.00;99.90;;;;;;5449486;26;20042;-81
2024/04/12 03:47:00;;;;;;;29.50;17.35;;;13.10;99.90;;;;;;5452869;26;20133;-80
2024/04/12 03:49:28;;;;;;;22.17;13.55;;;13.10;99.90;;;;;;5452875;26;20035;-82
2024/04/12 03:51:56;;;;;;;24.05;13.90;;;13.10;99.90;;;;;;5450237;26;20035;-81
2024/04/12 03:54:26;;;;;;;24.63;13.82;;;13.10;99.90;;;;;;5452694;26;20030;-80
2024/04/12 03:56:57;;;;;;;22.95;13.20;;;13.00;99.90;;;;;;5452810;26;20030;-80
2024/04/12 03:59:28;;;;;;;23.85;14.23;;;13.10;99.90;;;;;;5452310;26;20023;-81
2024/04/12 04:01:56;;;;;;;27.20;15.57;;;13.10;99.90;;;;;;5452749;26;20829;-82
2024/04/12 04:04:28;;;;;;;23.95;13.68;;;13.10;99.90;;;;;;5437032;26;20883;-82
2024/04/12 04:06:55;;;;;;;26.50;15.73;;;13.10;99.90;;;;;;5414884;26;20031;-81
2024/04/12 04:09:25;;;;;;;31.95;17.13;;;13.10;99.90;;;;;;5416674;26;20028;-81
2024/04/12 04:11:54;;;;;;;26.20;16.77;;;13.00;99.90;;;;;;5415629;26;20035;-80
2024/04/12 04:14:25;;;;;;;29.45;17.70;;;13.20;99.90;;;;;;5419080;26;20031;-81
2024/04/12 04:16:56;;;;;;;28.85;17.13;;;13.10;99.90;;;;;;5452085;26;20036;-80
2024/04/12 04:19:31;;;;;;;30.00;17.40;;;13.10;99.90;;;;;;5452428;26;20023;-80
2024/04/12 04:22:04;;;;;;;27.98;17.02;;;13.10;99.90;;;;;;5401896;26;20039;-81
2024/04/12 04:24:34;;;;;;;27.90;16.52;;;13.10;99.90;;;;;;5452034;26;20026;-81
2024/04/12 04:27:02;;;;;;;28.35;16.23;;;13.10;99.90;;;;;;5451788;26;20381;-81
2024/04/12 04:29:29;;;;;;;28.30;16.27;;;13.10;99.90;;;;;;5452020;26;20378;-81
2024/04/12 04:31:56;;;;;;;28.45;17.10;;;13.10;99.90;;;;;;5452329;26;20026;-81
2024/04/12 04:34:25;;;;;;;27.63;17.10;;;13.10;99.90;;;;;;5451201;26;20034;-78
2024/04/12 04:36:56;;;;;;;34.60;18.30;;;13.10;99.90;;;;;;5452089;26;20783;-80
2024/04/12 04:39:24;;;;;;;29.75;16.50;;;13.10;99.90;;;;;;5452091;26;20034;-81
2024/04/12 04:41:53;;;;;;;24.40;14.63;;;13.10;99.90;;;;;;5451602;26;20022;-81
2024/04/12 04:44:21;;;;;;;25.70;15.32;;;13.10;99.90;;;;;;5422048;26;20477;-83
2024/04/12 04:46:49;;;;;;;23.98;13.88;;;13.10;99.90;;;;;;5451648;26;20034;-81
2024/04/12 04:49:19;;;;;;;25.75;14.32;;;13.10;99.90;;;;;;5439795;26;20039;-83
2024/04/12 04:51:46;;;;;;;23.98;14.10;;;13.10;99.90;;;;;;5434010;26;20027;-81
2024/04/12 04:54:14;;;;;;;22.75;14.13;;;13.00;99.90;;;;;;5442469;26;20047;-81
2024/04/12 04:56:45;;;;;;;23.67;13.15;;;13.10;99.90;;;;;;5415593;26;20114;-81
2024/04/12 04:59:16;;;;;;;23.58;13.07;;;13.10;99.90;;;;;;5413355;26;20031;-80
2024/04/12 05:01:48;;;;;;;22.73;12.60;;;13.00;99.90;;;;;;5442865;26;20039;-86
2024/04/12 05:04:21;;;;;;;20.60;12.13;;;13.10;99.90;;;;;;5447235;26;20374;-85
2024/04/12 05:06:51;;;;;;;21.48;13.13;;;13.20;99.90;;;;;;5451447;26;20722;-84
2024/04/12 05:09:19;;;;;;;20.52;12.65;;;13.10;99.90;;;;;;5452412;26;20035;-81
2024/04/12 05:11:49;;;;;;;22.13;12.70;;;13.10;99.90;;;;;;5446479;26;20891;-82
2024/04/12 05:17:09;;;;;;;23.40;13.27;;;13.10;99.90;;;;;;5440316;26;20027;-85
2024/04/12 05:19:43;;;;;;;20.38;11.32;;;13.10;99.90;;;;;;5444261;26;20036;-83
2024/04/12 05:22:11;;;;;;;19.40;12.20;;;13.10;99.90;;;;;;5450595;26;20468;-83
2024/04/12 05:24:39;;;;;;;21.48;12.43;;;13.10;99.90;;;;;;5452224;26;20029;-83
2024/04/12 05:27:10;;;;;;;22.33;11.27;;;13.10;99.90;;;;;;5451196;26;20027;-83
2024/04/12 05:29:37;;;;;;;19.50;10.57;;;13.10;99.90;;;;;;5443913;26;20395;-82
2024/04/12 05:32:09;;;;;;;18.77;10.27;;;13.10;99.90;;;;;;5448959;26;20027;-81
2024/04/12 05:34:36;;;;;;;19.95;9.85;;;13.10;99.90;;;;;;5449919;26;20038;-81
2024/04/12 05:37:03;;;;;;;17.55;10.35;;;13.10;99.90;;;;;;5423739;26;20039;-81
2024/04/12 05:39:41;;;;;;;19.70;10.15;;;13.00;99.90;;;;;;5413362;26;20027;-81
2024/04/12 05:42:09;;;;;;;17.95;10.43;;;13.10;99.90;;;;;;5415553;26;20051;-81
2024/04/12 05:44:37;;;;;;;19.50;9.23;;;13.10;99.90;;;;;;5436552;26;20042;-83
2024/04/12 05:47:09;;;;;;;18.42;10.15;;;13.00;99.90;;;;;;5413473;26;20041;-81
2024/04/12 05:49:36;;;;;;;16.38;9.07;;;13.00;99.90;;;;;;5422849;26;20031;-81
2024/04/12 05:52:06;;;;;;;17.27;9.05;;;13.10;99.90;;;;;;5414263;26;20027;-80
2024/04/12 05:54:39;;;;;;;15.90;9.52;;;13.10;99.90;;;;;;5400456;26;20937;-81
2024/04/12 05:57:07;;;;;;;16.38;10.30;;;13.10;99.90;;;;;;5431555;26;20034;-81
2024/04/12 05:59:34;;;;;;;15.30;9.77;;;13.10;99.90;;;;;;5428135;26;20040;-80
2024/04/12 06:02:05;;;;;;;18.17;10.43;;;13.10;99.90;;;;;;5414655;26;20027;-82
2024/04/12 06:04:32;;;;;;;18.55;9.68;;;13.10;99.90;;;;;;5446535;26;20035;-80
2024/04/12 06:07:07;;;;;;;18.58;10.50;;;13.10;99.90;;;;;;5423708;26;20032;-80
2024/04/12 06:09:34;;;;;;;18.33;10.25;;;13.10;99.90;;;;;;5425126;26;20044;-81
2024/04/12 06:12:05;;;;;;;19.52;10.55;;;13.10;99.90;;;;;;5410415;26;20038;-83
2024/04/12 06:14:38;;;;;;;17.45;10.07;;;13.10;99.90;;;;;;5439622;26;20044;-81
2024/04/12 06:17:08;;;;;;;17.08;10.27;;;13.10;99.90;;;;;;5416462;26;20388;-79
2024/04/12 06:19:37;;;;;;;17.95;11.18;;;13.10;99.90;;;;;;5435778;26;20031;-81
2024/04/12 06:22:13;;;;;;;17.25;9.90;;;13.10;99.90;;;;;;5449691;26;20835;-82
2024/04/12 06:24:42;;;;;;;18.88;10.43;;;13.10;99.90;;;;;;5416176;26;20504;-81
2024/04/12 06:27:09;;;;;;;17.95;10.10;;;13.10;99.90;;;;;;5414373;26;20040;-81
2024/04/12 06:29:36;;;;;;;17.55;9.40;;;13.10;99.90;;;;;;5444891;26;20114;-81
2024/04/12 06:32:05;;;;;;;20.77;10.15;;;13.10;99.90;;;;;;5449352;26;20796;-81
2024/04/12 06:34:37;;;;;;;17.30;9.43;;;13.10;99.90;;;;;;5449695;26;20031;-80
2024/04/12 06:37:06;;;;;;;17.63;10.35;;;13.10;99.90;;;;;;5447426;26;20838;-81
2024/04/12 06:39:33;;;;;;;21.40;10.07;;;13.10;99.90;;;;;;5414955;26;20494;-81
2024/04/12 06:42:08;;;;;;;18.00;9.80;;;13.10;99.90;;;;;;5413371;26;20126;-80
2024/04/12 06:44:35;;;;;;;19.80;9.85;;;13.10;99.90;;;;;;5383407;26;20888;-80
2024/04/12 06:47:05;;;;;;;17.17;9.48;;;13.10;99.90;;;;;;5413491;26;20506;-79
2024/04/12 06:49:37;;;;;;;18.00;9.82;;;13.10;99.90;;;;;;5442286;26;20944;-79
2024/04/12 06:52:10;;;;;;;18.90;9.18;;;13.20;99.90;;;;;;5449784;26;20925;-80
2024/04/12 06:54:41;;;;;;;16.42;10.07;;;13.20;99.90;;;;;;5449588;26;20027;-79
2024/04/12 06:57:17;;;;;;;21.95;10.30;;;13.30;99.90;;;;;;5451511;26;20039;-79
2024/04/12 06:59:47;;;;;;;18.45;9.88;;;13.20;99.90;;;;;;5453718;26;20054;-83
2024/04/12 07:02:14;;;;;;;19.45;10.25;;;13.20;99.90;;;;;;5436599;26;20373;-84
2024/04/12 07:04:41;;;;;;;18.17;10.13;;;13.20;99.90;;;;;;5452006;26;20338;-84
2024/04/12 07:07:08;;;;;;;19.25;10.35;;;13.20;99.90;;;;;;5434071;26;20032;-85
2024/04/12 07:09:38;;;;;;;18.85;9.90;;;13.30;99.90;;;;;;5452766;26;20026;-86
2024/04/12 07:12:08;;;;;;;17.42;10.18;;;13.20;99.90;;;;;;5449160;26;20656;-84
2024/04/12 07:14:36;;;;;;;22.80;11.68;;;13.30;99.90;;;;;;5444457;26;20038;-83
2024/04/12 07:17:19;;;;;;;19.98;11.25;;;13.30;99.90;;;;;;5429591;26;20043;-84
2024/04/12 07:19:50;;;;;;;20.70;10.95;;;13.40;99.90;;;;;;5445950;26;20031;-83
2024/04/12 07:22:22;;;;;;;20.85;11.27;;;13.40;99.90;;;;;;5433208;26;20386;-84
2024/04/12 07:24:50;;;;;;;23.90;11.50;;;13.40;99.90;;;;;;5443356;26;20042;-83
2024/04/12 07:27:18;;;;;;;18.73;10.65;;;13.50;99.90;;;;;;5436705;26;20058;-83
2024/04/12 07:29:46;;;;;;;19.17;10.88;;;13.60;99.90;;;;;;5414867;26;20039;-83
2024/04/12 07:32:17;;;;;;;18.63;11.68;;;13.60;99.90;;;;;;5439655;26;20034;-83
2024/04/12 07:34:50;;;;;;;20.90;10.48;;;13.70;99.90;;;;;;5431065;26;20046;-83
2024/04/12 07:37:36;;;;;;;18.27;11.00;;;13.70;99.90;;;;;;5449553;26;20035;-84
2024/04/12 07:40:17;;;;;;;17.38;9.88;;;13.80;99.90;;;;;;5434793;26;20040;-85
2024/04/12 07:42:48;;;;;;;20.52;9.85;;;13.80;99.90;;;;;;5428169;26;20035;-83
2024/04/12 07:45:23;;;;;;;18.50;10.30;;;13.90;99.90;;;;;;5440297;26;20030;-83
2024/04/12 07:48:11;;;;;;;17.35;9.95;;;14.00;99.90;;;;;;5432508;26;20040;-85
2024/04/12 07:50:39;;;;;;;17.13;10.13;;;14.10;99.90;;;;;;5436312;26;20027;-84
2024/04/12 07:53:10;;;;;;;16.92;10.05;;;14.10;99.90;;;;;;5427787;26;20388;-84
2024/04/12 07:55:39;;;;;;;18.45;9.68;;;14.20;99.90;;;;;;5433742;26;20031;-85
2024/04/12 07:58:08;;;;;;;15.43;9.77;;;14.20;99.90;;;;;;5446322;26;20039;-83
2024/04/12 08:00:45;;;;;;;15.48;9.85;;;14.20;99.90;;;;;;5446567;26;20839;-85
2024/04/12 08:03:16;;;;;;;14.45;8.65;;;14.20;99.90;;;;;;5450447;26;20039;-82
2024/04/12 08:06:00;;;;;;;15.10;8.35;;;14.40;99.90;;;;;;5447168;26;20861;-83
2024/04/12 08:08:31;;;;;;;14.23;8.63;;;14.40;99.90;;;;;;5434547;26;20035;-82
2024/04/12 08:11:10;;;;;;;12.80;7.88;;;14.40;99.90;;;;;;5452911;26;20039;-84
2024/04/12 08:13:44;;;;;;;14.82;7.95;;;14.50;99.90;;;;;;5442169;26;20038;-85
2024/04/12 08:16:14;;;;;;;12.15;6.80;;;14.60;99.90;;;;;;5449787;26;20034;-84
2024/04/12 08:18:44;;;;;;;12.88;7.50;;;14.60;99.90;;;;;;5451428;26;20030;-84
2024/04/12 08:21:12;;;;;;;12.27;7.38;;;14.70;99.90;;;;;;5444350;26;20031;-86
2024/04/12 08:23:45;;;;;;;12.07;6.60;;;14.80;99.90;;;;;;5449809;26;20026;-84
2024/04/12 08:26:16;;;;;;;10.85;5.55;;;14.80;99.90;;;;;;5448383;26;20035;-83
2024/04/12 08:28:43;;;;;;;10.73;5.68;;;14.90;99.90;;;;;;5450178;26;20035;-86
2024/04/12 08:31:11;;;;;;;9.20;5.55;;;15.00;99.90;;;;;;5435937;26;20036;-86
2024/04/12 08:33:45;;;;;;;10.70;5.55;;;15.00;99.90;;;;;;5445974;26;20030;-85
2024/04/12 08:36:16;;;;;;;10.75;5.38;;;15.00;99.90;;;;;;5449350;26;20781;-85
2024/04/12 08:39:11;;;;;;;9.48;5.60;;;15.10;99.90;;;;;;5451614;26;20038;-83
2024/04/12 08:41:39;;;;;;;8.77;5.13;;;15.10;99.90;;;;;;5450595;26;20099;-84
2024/04/12 08:44:09;;;;;;;11.07;5.40;;;15.20;99.90;;;;;;5451264;26;20038;-87
2024/04/12 08:46:46;;;;;;;8.90;5.10;;;15.20;99.90;;;;;;5437996;26;20034;-87
2024/04/12 08:49:17;;;;;;;8.65;4.78;;;15.40;99.90;;;;;;5443154;26;20043;-83
2024/04/12 08:51:46;;;;;;;8.75;4.90;;;15.50;99.90;;;;;;5451522;26;20035;-84
2024/04/12 08:54:16;;;;;;;10.45;4.78;;;15.60;99.90;;;;;;5446863;26;20046;-86
2024/04/12 08:56:46;;;;;;;8.90;4.40;;;15.60;99.90;;;;;;5430982;26;20030;-84
2024/04/12 08:59:18;;;;;;;9.05;4.40;;;15.70;99.90;;;;;;5450915;26;20042;-83
2024/04/12 09:01:47;;;;;;;9.35;3.78;;;15.80;99.90;;;;;;5448812;26;20031;-86
2024/04/12 09:04:20;;;;;;;8.38;4.22;;;16.00;99.90;;;;;;5450682;26;20030;-87
2024/04/12 09:06:48;;;;;;;9.32;4.43;;;16.00;99.90;;;;;;5430323;26;20040;-85
2024/04/12 09:09:17;;;;;;;10.07;3.83;;;16.20;99.90;;;;;;5448595;26;20038;-86
2024/04/12 09:11:45;;;;;;;8.43;3.53;;;16.20;99.90;;;;;;5443769;26;20384;-84
2024/04/12 09:14:19;;;;;;;8.25;3.30;;;16.30;99.90;;;;;;5450728;26;20043;-83
2024/04/12 09:16:53;;;;;;;8.48;3.60;;;16.30;99.90;;;;;;5434318;26;20840;-86
2024/04/12 09:19:24;;;;;;;7.93;3.83;;;16.40;99.90;;;;;;5441377;26;20121;-85
2024/04/12 09:22:09;;;;;;;9.02;3.85;;;16.40;99.90;;;;;;5446549;26;20035;-84
2024/04/12 09:24:39;;;;;;;9.57;3.50;;;16.50;99.90;;;;;;5449645;26;20027;-84
2024/04/12 09:27:09;;;;;;;6.93;2.85;;;16.60;99.90;;;;;;5433275;26;20030;-85
2024/04/12 09:29:47;;;;;;;6.22;2.67;;;16.80;99.90;;;;;;5451250;26;20026;-85
2024/04/12 09:35:13;;;;;;;6.80;2.95;;;17.00;99.90;;;;;;5437437;26;20043;-84
2024/04/12 09:37:43;;;;;;;6.05;2.65;;;17.00;99.90;;;;;;5442365;26;20039;-88
2024/04/12 09:43:25;;;;;;;9.68;3.00;;;17.00;99.90;;;;;;5448956;26;20027;-84
2024/04/12 09:45:45;;;;;;;10.23;3.25;;;17.00;99.90;;;;;;5436834;26;20039;-84
2024/04/12 10:39:15;;;;;;;8.77;3.00;;;18.40;99.90;;;;;;5413807;26;20474;-87
2024/04/12 10:41:45;;;;;;;6.15;2.80;;;18.40;99.90;;;;;;5443999;26;20043;-83
2024/04/12 10:44:12;;;;;;;7.78;2.50;;;18.40;99.90;;;;;;5451184;26;20089;-82
2024/04/12 10:46:39;;;;;;;7.13;1.80;;;18.50;99.90;;;;;;5452214;26;20031;-83
2024/04/12 10:49:06;;;;;;;6.53;2.15;;;18.50;99.90;;;;;;5429230;26;20036;-84
2024/04/12 10:51:39;;;;;;;6.82;1.92;;;18.50;99.90;;;;;;5436019;26;20031;-82
2024/04/12 10:54:10;;;;;;;8.70;2.72;;;18.50;99.90;;;;;;5438604;26;20028;-85
2024/04/12 10:56:44;;;;;;;8.77;1.90;;;18.50;99.90;;;;;;5445046;26;20030;-84
2024/04/12 10:59:26;;;;;;;6.47;2.20;;;18.50;99.90;;;;;;5435213;26;20036;-84
2024/04/12 11:01:59;;;;;;;9.00;1.85;;;18.50;99.90;;;;;;5444622;26;20044;-84
2024/04/12 11:04:34;;;;;;;5.75;1.80;;;18.50;99.90;;;;;;5438969;26;20034;-84
2024/04/12 11:07:01;;;;;;;6.07;1.90;;;18.40;99.90;;;;;;5424790;26;20375;-86
2024/04/12 11:09:38;;;;;;;5.85;1.90;;;18.30;99.90;;;;;;5410041;26;20013;-85
2024/04/12 11:12:10;;;;;;;4.93;1.45;;;18.40;99.90;;;;;;5422952;26;20043;-85
2024/04/12 11:14:38;;;;;;;7.50;2.13;;;18.40;99.90;;;;;;5414784;26;20036;-86
2024/04/12 11:31:14;;;;;;;6.50;2.13;;;18.90;99.90;;;;;;5445869;26;20035;-82
2024/04/12 11:33:52;;;;;;;6.75;1.50;;;18.90;99.90;;;;;;5447735;26;20027;-81
2024/04/12 11:36:23;;;;;;;5.72;1.77;;;18.90;99.90;;;;;;5450763;26;20027;-81
2024/04/12 11:38:53;;;;;;;12.27;3.95;;;18.90;99.90;;;;;;5451399;26;20497;-82
2024/04/12 11:41:23;;;;;;;12.93;2.90;;;18.80;99.90;;;;;;5396024;26;20031;-83
2024/04/12 11:43:52;;;;;;;8.45;2.40;;;18.80;99.90;;;;;;5427061;26;20026;-81
2024/04/12 11:46:23;;;;;;;10.75;2.05;;;18.90;99.90;;;;;;5434950;26;20028;-81
2024/04/12 11:48:53;;;;;;;11.20;2.08;;;18.80;99.90;;;;;;5450690;26;20026;-82
2024/04/12 11:51:21;;;;;;;8.18;2.22;;;18.70;99.90;;;;;;5450051;26;20118;-79
2024/04/12 11:53:50;;;;;;;7.65;1.70;;;18.60;99.90;;;;;;5444179;26;20028;-82
2024/04/12 11:56:17;;;;;;;6.57;1.55;;;18.50;99.90;;;;;;5408053;26;20922;-83
2024/04/12 11:58:44;;;;;;;8.38;1.83;;;18.60;99.90;;;;;;5431915;26;20032;-82
2024/04/12 12:01:13;;;;;;;10.32;2.40;;;18.60;99.90;;;;;;5422658;26;20014;-81
2024/04/12 12:03:40;;;;;;;6.20;1.80;;;18.60;99.90;;;;;;5432426;26;20050;-80
2024/04/12 12:06:06;;;;;;;6.15;1.77;;;18.70;99.90;;;;;;5431482;26;20027;-81
2024/04/12 12:08:40;;;;;;;9.98;2.38;;;18.60;99.90;;;;;;5446388;26;20038;-83
2024/04/12 12:11:08;;;;;;;7.80;1.77;;;18.60;99.90;;;;;;5429578;26;20003;-80
2024/04/12 12:13:35;;;;;;;9.45;1.75;;;18.50;99.90;;;;;;5447128;26;20923;-80
2024/04/12 12:16:06;;;;;;;6.60;1.45;;;18.50;99.90;;;;;;5425127;26;20028;-82
2024/04/12 12:18:35;;;;;;;6.57;2.30;;;18.60;99.90;;;;;;5442570;26;20039;-80
2024/04/12 12:21:04;;;;;;;9.65;2.70;;;18.60;99.90;;;;;;5415177;26;20035;-80
2024/04/12 12:23:30;;;;;;;6.50;1.63;;;18.60;99.90;;;;;;5432990;26;20023;-82
2024/04/12 12:25:58;;;;;;;10.32;2.10;;;18.60;99.90;;;;;;5416207;26;20031;-79
2024/04/12 12:28:26;;;;;;;6.25;1.75;;;18.70;99.90;;;;;;5448866;26;20046;-81
2024/04/12 12:30:57;;;;;;;12.10;2.55;;;18.70;99.90;;;;;;5447211;26;20034;-80
2024/04/12 12:33:24;;;;;;;8.25;2.05;;;18.60;99.90;;;;;;5445957;26;20031;-82
2024/04/12 12:35:54;;;;;;;7.22;2.13;;;18.70;99.90;;;;;;5434385;26;20035;-82
2024/04/12 12:38:21;;;;;;;10.65;2.53;;;18.60;99.90;;;;;;5435567;26;20034;-82
2024/04/12 12:40:48;;;;;;;7.88;1.90;;;18.60;99.90;;;;;;5449962;26;20035;-84
2024/04/12 12:43:15;;;;;;;8.27;1.73;;;18.70;99.90;;;;;;5450867;26;20025;-83
2024/04/12 12:45:41;;;;;;;6.57;1.45;;;18.80;99.90;;;;;;5450932;26;20031;-82
2024/04/12 12:48:21;;;;;;;7.68;1.67;;;18.90;99.90;;;;;;5448656;26;20026;-85
2024/04/12 12:50:50;;;;;;;8.30;1.88;;;19.10;99.90;;;;;;5448844;26;20032;-82
2024/04/12 12:53:20;;;;;;;8.52;2.13;;;19.10;99.90;;;;;;5446775;26;20505;-82
2024/04/12 12:55:47;;;;;;;11.57;2.70;;;19.10;99.90;;;;;;5406277;26;20520;-82
2024/04/12 12:58:18;;;;;;;8.82;2.35;;;19.10;99.90;;;;;;5438021;26;20039;-81
2024/04/12 13:00:47;;;;;;;8.82;2.20;;;19.10;99.90;;;;;;5450929;26;20034;-82
2024/04/12 13:03:17;;;;;;;7.25;2.20;;;19.20;99.90;;;;;;5450083;26;20843;-85
2024/04/12 13:05:45;;;;;;;6.75;2.03;;;19.20;99.90;;;;;;5448062;26;20035;-83
2024/04/12 13:08:15;;;;;;;10.07;2.38;;;19.30;99.90;;;;;;5418041;26;20523;-82
2024/04/12 13:10:53;;;;;;;10.82;2.00;;;19.30;99.90;;;;;;5436523;26;20392;-82
2024/04/12 13:13:22;;;;;;;10.07;2.30;;;19.40;99.90;;;;;;5410858;26;20011;-84
2024/04/12 13:15:57;;;;;;;7.63;2.17;;;19.50;99.90;;;;;;5414478;26;20054;-82
2024/04/12 13:18:27;;;;;;;10.93;2.25;;;19.60;99.90;;;;;;5441795;26;20035;-82
2024/04/12 13:20:56;;;;;;;12.27;2.28;;;19.50;99.90;;;;;;5448266;26;20027;-81
2024/04/12 13:23:25;;;;;;;5.65;2.03;;;19.50;99.90;;;;;;5451068;26;20030;-82
2024/04/12 13:25:53;;;;;;;9.55;2.42;;;19.50;99.90;;;;;;5449648;26;20039;-82
2024/04/12 13:28:20;;;;;;;9.93;2.70;;;19.50;99.90;;;;;;5436398;26;20036;-81
2024/04/12 13:30:47;;;;;;;13.48;2.78;;;19.50;99.90;;;;;;5416605;26;20635;-81
2024/04/12 13:33:14;;;;;;;9.45;2.30;;;19.50;99.90;;;;;;5434669;26;20888;-84
2024/04/12 13:35:41;;;;;;;8.50;2.10;;;19.50;99.90;;;;;;5435691;26;20035;-84
2024/04/12 13:38:14;;;;;;;5.45;2.13;;;19.50;99.90;;;;;;5449245;26;20031;-86
2024/04/12 13:40:45;;;;;;;8.63;2.28;;;19.40;99.90;;;;;;5426535;26;20036;-84
2024/04/12 13:43:15;;;;;;;8.60;2.70;;;19.50;99.90;;;;;;5426875;26;20054;-84
2024/04/12 13:51:18;;;;;;;10.05;2.80;;;19.60;99.90;;;;;;5429467;26;20869;-84
2024/04/12 13:53:46;;;;;;;11.65;2.47;;;19.60;99.90;;;;;;5446334;26;20046;-85
2024/04/12 13:58:56;;;;;;;11.10;2.50;;;19.70;99.90;;;;;;5448557;26;20026;-86
2024/04/12 14:01:30;;;;;;;13.27;2.80;;;19.60;99.90;;;;;;5415956;26;20059;-86
2024/04/12 14:04:04;;;;;;;11.60;2.38;;;19.60;99.90;;;;;;5424539;26;20835;-85
2024/04/12 14:06:34;;;;;;;7.32;1.85;;;19.50;99.90;;;;;;5421625;26;20044;-86
2024/04/12 14:09:21;;;;;;;8.35;1.80;;;19.50;99.90;;;;;;5422994;26;20027;-84
2024/04/12 14:11:51;;;;;;;11.27;2.17;;;19.30;99.80;;;;;;5418043;26;20039;-84
2024/04/12 14:14:23;;;;;;;5.47;1.80;;;19.30;99.90;;;;;;5415539;26;20047;-85
2024/04/12 14:16:52;;;;;;;8.57;1.77;;;19.20;99.90;;;;;;5417631;26;20031;-84